createdAt,value
2019-05-30T00:02:07.395Z,8.20
2019-05-30T00:04:37.110Z,8.50
2019-05-30T00:07:06.137Z,9.10
2019-05-30T00:09:34.710Z,7.57
2019-05-30T00:12:04.886Z,11.53
2019-05-30T00:14:34.001Z,13.47
2019-05-30T00:17:03.072Z,9.80
2019-05-30T00:19:34.022Z,7.00
2019-05-30T00:22:03.912Z,6.93
2019-05-30T00:24:33.093Z,11.30
2019-05-30T00:27:02.432Z,8.30
2019-05-30T00:29:31.443Z,7.07
2019-05-30T00:32:01.507Z,7.97
2019-05-30T00:34:30.439Z,7.40
2019-05-30T00:37:00.243Z,7.47
2019-05-30T00:39:29.112Z,6.70
2019-05-30T00:41:57.917Z,8.37
2019-05-30T00:44:27.338Z,9.83
2019-05-30T00:46:56.145Z,7.90
2019-05-30T00:49:25.175Z,11.73
2019-05-30T00:51:54.076Z,8.60
2019-05-30T00:54:22.903Z,8.83
2019-05-30T00:56:51.642Z,8.27
2019-05-30T00:59:20.506Z,10.60
2019-05-30T01:01:49.317Z,12.70
2019-05-30T01:04:18.151Z,9.00
2019-05-30T01:06:46.995Z,8.33
2019-05-30T01:09:15.787Z,9.83
2019-05-30T01:11:44.363Z,8.20
2019-05-30T01:14:13.263Z,7.67
2019-05-30T01:16:42.738Z,8.10
2019-05-30T01:19:11.804Z,7.33
2019-05-30T01:21:40.846Z,7.47
2019-05-30T01:24:09.665Z,7.30
2019-05-30T01:26:38.593Z,11.20
2019-05-30T01:29:07.778Z,7.40
2019-05-30T01:31:36.735Z,8.63
2019-05-30T01:34:05.860Z,8.37
2019-05-30T01:36:34.831Z,9.60
2019-05-30T01:39:05.874Z,13.83
2019-05-30T01:41:34.724Z,7.83
2019-05-30T01:44:03.966Z,9.40
2019-05-30T01:46:32.824Z,8.93
2019-05-30T01:49:04.395Z,9.33
2019-05-30T01:51:33.337Z,8.57
2019-05-30T01:54:02.550Z,11.40
2019-05-30T01:56:31.423Z,10.37
2019-05-30T01:59:00.558Z,9.37
2019-05-30T02:01:29.701Z,10.23
2019-05-30T02:03:59.123Z,8.13
2019-05-30T02:06:28.119Z,8.37
2019-05-30T02:08:57.054Z,10.00
2019-05-30T02:11:25.908Z,9.13
2019-05-30T02:13:54.875Z,11.27
2019-05-30T02:16:23.757Z,9.83
2019-05-30T02:18:52.663Z,9.63
2019-05-30T02:21:21.622Z,10.50
2019-05-30T02:23:50.179Z,6.63
2019-05-30T02:26:19.067Z,8.63
2019-05-30T02:28:47.914Z,10.50
2019-05-30T02:31:37.363Z,8.83
2019-05-30T02:33:46.941Z,7.53
2019-05-30T02:36:15.863Z,9.87
2019-05-30T02:38:44.749Z,9.30
2019-05-30T02:41:13.744Z,12.03
2019-05-30T02:43:42.332Z,10.30
2019-05-30T02:46:12.598Z,8.90
2019-05-30T02:48:58.117Z,8.97
2019-05-30T02:51:12.822Z,8.87
2019-05-30T02:53:41.801Z,8.93
2019-05-30T02:56:12.470Z,11.60
2019-05-30T02:58:41.391Z,8.80
2019-05-30T03:01:11.954Z,9.87
2019-05-30T03:03:40.176Z,7.93
2019-05-30T03:06:11.059Z,8.17
2019-05-30T03:08:39.677Z,8.23
2019-05-30T03:11:10.867Z,7.33
2019-05-30T03:13:39.619Z,14.30
2019-05-30T03:16:09.324Z,10.10
2019-05-30T03:18:38.443Z,9.13
2019-05-30T03:21:09.292Z,12.10
2019-05-30T03:23:38.102Z,8.17
2019-05-30T03:26:09.693Z,10.57
2019-05-30T03:28:37.640Z,11.90
2019-05-30T03:31:13.948Z,15.73
2019-05-30T03:33:42.244Z,9.63
2019-05-30T03:36:18.822Z,7.13
2019-05-30T03:38:38.864Z,10.13
2019-05-30T03:41:11.294Z,11.23
2019-05-30T03:43:38.772Z,12.57
2019-05-30T03:46:12.718Z,10.70
2019-05-30T03:48:44.302Z,9.60
2019-05-30T03:51:15.482Z,7.17
2019-05-30T03:53:44.493Z,7.50
2019-05-30T03:56:16.568Z,6.30
2019-05-30T03:58:51.532Z,8.30
2019-05-30T04:01:26.108Z,9.30
2019-05-30T04:04:11.567Z,9.27
2019-05-30T04:06:43.406Z,8.90
2019-05-30T04:09:21.598Z,7.20
2019-05-30T04:12:02.117Z,6.97
2019-05-30T04:14:33.753Z,7.70
2019-05-30T04:17:02.331Z,10.50
2019-05-30T04:19:31.272Z,13.00
2019-05-30T04:22:00.042Z,17.33
2019-05-30T04:24:28.869Z,16.30
2019-05-30T04:26:57.868Z,14.97
2019-05-30T04:29:26.657Z,11.97
2019-05-30T04:31:55.543Z,12.50
2019-05-30T04:34:24.439Z,12.73
2019-05-30T04:36:53.861Z,10.50
2019-05-30T04:39:22.822Z,12.60
2019-05-30T04:41:51.660Z,11.37
2019-05-30T04:44:20.699Z,10.07
2019-05-30T04:46:49.515Z,10.23
2019-05-30T04:49:19.703Z,13.00
2019-05-30T04:51:48.985Z,11.60
2019-05-30T04:54:19.244Z,10.07
2019-05-30T04:56:48.242Z,14.90
2019-05-30T04:59:17.507Z,13.03
2019-05-30T05:01:47.732Z,24.53
2019-05-30T05:04:17.728Z,17.57
2019-05-30T05:06:46.745Z,14.20
2019-05-30T05:09:16.015Z,21.93
2019-05-30T05:11:45.010Z,21.10
2019-05-30T05:14:14.330Z,12.93
2019-05-30T05:16:53.041Z,17.63
2019-05-30T05:19:24.708Z,10.00
2019-05-30T05:21:52.201Z,13.37
2019-05-30T05:24:21.455Z,10.67
2019-05-30T05:26:50.267Z,9.53
2019-05-30T05:29:19.865Z,11.70
2019-05-30T05:31:48.680Z,7.10
2019-05-30T05:34:17.180Z,6.85
2019-05-30T05:36:45.607Z,11.68
2019-05-30T05:39:14.332Z,14.43
2019-05-30T05:41:42.760Z,5.78
2019-05-30T05:44:11.462Z,9.75
2019-05-30T05:46:41.157Z,8.08
2019-05-30T05:49:09.847Z,7.40
2019-05-30T05:51:38.545Z,7.97
2019-05-30T05:54:07.302Z,24.80
2019-05-30T05:56:35.715Z,9.85
2019-05-30T05:59:04.503Z,11.22
2019-05-30T06:01:33.234Z,9.35
2019-05-30T06:04:12.537Z,6.80
2019-05-30T06:06:32.500Z,7.78
2019-05-30T06:09:01.231Z,9.75
2019-05-30T06:11:29.923Z,9.73
2019-05-30T06:13:58.606Z,9.65
2019-05-30T06:16:28.403Z,13.48
2019-05-30T06:18:56.927Z,12.35
2019-05-30T06:21:25.638Z,10.32
2019-05-30T06:23:54.355Z,9.88
2019-05-30T06:26:24.177Z,12.20
2019-05-30T06:28:53.074Z,12.20
2019-05-30T06:31:22.457Z,13.18
2019-05-30T06:33:50.909Z,8.58
2019-05-30T06:36:20.858Z,10.15
2019-05-30T06:38:49.681Z,7.72
2019-05-30T06:41:19.380Z,8.25
2019-05-30T06:43:48.115Z,13.15
2019-05-30T06:46:16.816Z,9.18
2019-05-30T06:48:46.480Z,10.18
2019-05-30T06:51:15.185Z,10.93
2019-05-30T06:53:43.903Z,8.90
2019-05-30T06:56:12.604Z,20.02
2019-05-30T06:58:48.347Z,8.60
2019-05-30T07:01:11.907Z,7.83
2019-05-30T07:03:40.548Z,8.73
2019-05-30T07:06:09.712Z,13.70
2019-05-30T07:08:38.720Z,9.53
2019-05-30T07:11:07.418Z,8.45
2019-05-30T07:13:36.122Z,7.55
2019-05-30T07:16:04.978Z,8.83
2019-05-30T07:18:36.500Z,10.98
2019-05-30T07:21:04.004Z,8.25
2019-05-30T07:23:33.945Z,10.53
2019-05-30T07:26:03.660Z,8.83
2019-05-30T07:28:32.583Z,9.53
2019-05-30T07:31:01.726Z,6.47
2019-05-30T07:33:30.705Z,8.35
2019-05-30T07:35:59.391Z,7.40
2019-05-30T07:38:28.395Z,8.63
2019-05-30T07:40:56.987Z,8.88
2019-05-30T07:43:28.141Z,11.63
2019-05-30T07:45:58.214Z,8.10
2019-05-30T07:48:28.023Z,10.88
2019-05-30T07:50:57.107Z,6.47
2019-05-30T07:53:26.660Z,10.10
2019-05-30T07:55:55.556Z,9.63
2019-05-30T07:58:24.392Z,6.83
2019-05-30T08:00:53.265Z,8.83
2019-05-30T08:03:22.070Z,13.85
2019-05-30T08:05:50.920Z,6.83
2019-05-30T08:08:19.738Z,20.02
2019-05-30T08:10:48.591Z,9.90
2019-05-30T08:13:17.399Z,10.80
2019-05-30T08:15:46.217Z,10.55
2019-05-30T08:18:15.079Z,7.50
2019-05-30T08:20:44.109Z,13.60
2019-05-30T08:23:13.208Z,6.35
2019-05-30T08:25:42.215Z,10.23
2019-05-30T08:28:11.191Z,6.47
2019-05-30T08:30:40.094Z,9.05
2019-05-30T08:33:09.071Z,7.37
2019-05-30T08:35:47.701Z,7.33
2019-05-30T08:38:08.822Z,6.78
2019-05-30T08:40:37.782Z,7.17
2019-05-30T08:43:06.652Z,10.23
2019-05-30T08:45:36.103Z,10.43
2019-05-30T08:48:04.685Z,6.08
2019-05-30T08:50:34.137Z,5.00
2019-05-30T08:53:03.181Z,6.05
2019-05-30T08:55:32.414Z,6.25
2019-05-30T08:58:00.939Z,5.62
2019-05-30T09:00:30.201Z,3.55
2019-05-30T09:02:58.982Z,4.90
2019-05-30T09:05:27.490Z,4.90
2019-05-30T09:07:56.452Z,2.60
2019-05-30T09:10:25.491Z,3.00
2019-05-30T09:12:54.006Z,4.90
2019-05-30T09:15:22.848Z,2.62
2019-05-30T09:17:51.708Z,6.50
2019-05-30T09:20:20.672Z,2.27
2019-05-30T09:22:50.242Z,5.55
2019-05-30T09:25:19.156Z,2.72
2019-05-30T09:27:48.371Z,3.42
2019-05-30T09:30:18.680Z,2.33
2019-05-30T09:32:48.553Z,4.67
2019-05-30T09:35:18.183Z,2.50
2019-05-30T09:37:47.826Z,2.67
2019-05-30T09:40:17.315Z,3.72
2019-05-30T09:42:46.946Z,2.65
2019-05-30T09:45:18.067Z,4.22
2019-05-30T09:47:47.401Z,4.95
2019-05-30T09:50:17.812Z,2.22
2019-05-30T09:52:47.116Z,2.42
2019-05-30T09:55:18.096Z,2.87
2019-05-30T09:57:47.558Z,4.80
2019-05-30T10:00:18.917Z,4.58
2019-05-30T10:02:48.635Z,4.85
2019-05-30T10:05:18.773Z,3.12
2019-05-30T10:07:47.606Z,3.95
2019-05-30T10:10:18.682Z,4.03
2019-05-30T10:12:48.382Z,4.17
2019-05-30T10:15:17.727Z,5.33
2019-05-30T10:17:47.726Z,4.47
2019-05-30T10:20:17.884Z,3.83
2019-05-30T10:22:48.660Z,7.00
2019-05-30T10:25:17.526Z,2.72
2019-05-30T10:27:47.935Z,4.83
2019-05-30T10:30:17.745Z,4.25
2019-05-30T10:32:48.161Z,3.90
2019-05-30T10:35:17.834Z,3.08
2019-05-30T10:37:47.116Z,5.37
2019-05-30T10:40:16.410Z,3.83
2019-05-30T10:42:46.204Z,3.70
2019-05-30T10:45:17.363Z,3.17
2019-05-30T10:47:47.486Z,4.35
2019-05-30T10:50:16.918Z,5.85
2019-05-30T10:52:45.865Z,7.78
2019-05-30T10:55:15.100Z,3.83
2019-05-30T10:57:45.239Z,4.85
2019-05-30T11:00:17.305Z,4.10
2019-05-30T11:02:47.849Z,10.08
2019-05-30T11:05:18.747Z,2.67
2019-05-30T11:08:02.019Z,3.00
2019-05-30T11:10:38.961Z,7.22
2019-05-30T11:13:10.317Z,3.27
2019-05-30T11:15:39.407Z,7.60
2019-05-30T11:18:08.487Z,2.80
2019-05-30T11:20:37.502Z,2.33
2019-05-30T11:23:06.505Z,4.87
2019-05-30T11:25:35.218Z,3.12
2019-05-30T11:28:04.833Z,3.15
2019-05-30T11:30:33.534Z,4.35
2019-05-30T11:33:02.315Z,1.75
2019-05-30T11:35:32.627Z,1.70
2019-05-30T11:38:01.184Z,5.03
2019-05-30T11:40:30.056Z,6.62
2019-05-30T11:42:59.969Z,3.77
2019-05-30T11:45:29.184Z,4.30
2019-05-30T11:47:58.184Z,4.90
2019-05-30T11:50:27.110Z,6.67
2019-05-30T11:52:55.875Z,2.60
2019-05-30T11:55:24.790Z,2.37
2019-05-30T11:57:54.655Z,4.08
2019-05-30T12:00:24.516Z,3.55
2019-05-30T12:02:54.299Z,3.30
2019-05-30T12:05:23.393Z,4.72
2019-05-30T12:07:52.865Z,1.92
2019-05-30T12:10:22.848Z,5.08
2019-05-30T12:12:51.415Z,3.33
2019-05-30T12:15:20.240Z,4.90
2019-05-30T12:17:49.101Z,3.27
2019-05-30T12:20:18.293Z,2.85
2019-05-30T12:22:46.817Z,3.15
2019-05-30T12:25:16.314Z,2.25
2019-05-30T12:27:44.842Z,4.92
2019-05-30T12:30:14.337Z,4.72
2019-05-30T12:32:43.193Z,3.00
2019-05-30T12:35:13.980Z,2.52
2019-05-30T12:37:54.061Z,3.70
2019-05-30T12:40:16.198Z,2.60
2019-05-30T12:42:44.994Z,1.95
2019-05-30T12:45:14.095Z,2.35
2019-05-30T12:47:43.442Z,2.05
2019-05-30T12:50:16.700Z,3.42
2019-05-30T12:52:44.368Z,1.82
2019-05-30T12:55:13.319Z,2.05
2019-05-30T12:57:42.115Z,4.72
2019-05-30T13:00:18.469Z,2.35
2019-05-30T13:02:44.136Z,1.92
2019-05-30T13:05:13.298Z,3.00
2019-05-30T13:07:42.119Z,2.40
2019-05-30T13:10:11.454Z,2.55
2019-05-30T13:12:40.382Z,3.90
2019-05-30T13:15:09.287Z,3.00
2019-05-30T13:17:38.091Z,2.25
2019-05-30T13:20:09.529Z,3.35
2019-05-30T13:22:38.545Z,3.52
2019-05-30T13:25:08.263Z,4.08
2019-05-30T13:27:37.127Z,1.67
2019-05-30T13:30:08.124Z,2.05
2019-05-30T13:32:37.001Z,2.95
2019-05-30T13:35:07.663Z,1.47
2019-05-30T13:37:36.510Z,1.92
2019-05-30T13:40:24.253Z,2.47
2019-05-30T13:42:40.606Z,3.47
2019-05-30T13:45:09.429Z,4.08
2019-05-30T13:47:38.351Z,5.05
2019-05-30T13:50:13.958Z,3.75
2019-05-30T13:52:41.615Z,2.00
2019-05-30T13:55:12.268Z,2.52
2019-05-30T13:57:41.032Z,1.37
2019-05-30T14:00:11.346Z,2.12
2019-05-30T14:02:39.934Z,3.25
2019-05-30T14:05:10.539Z,2.50
2019-05-30T14:07:39.577Z,3.37
2019-05-30T14:10:08.830Z,3.25
2019-05-30T14:12:37.793Z,1.22
2019-05-30T14:15:14.042Z,6.30
2019-05-30T14:17:41.767Z,12.68
2019-05-30T14:20:12.023Z,2.55
2019-05-30T14:22:40.772Z,1.62
2019-05-30T14:25:09.903Z,2.47
2019-05-30T14:27:39.300Z,2.37
2019-05-30T14:30:09.355Z,1.45
2019-05-30T14:32:37.894Z,1.72
2019-05-30T14:35:12.294Z,2.98
2019-05-30T14:37:41.777Z,2.10
2019-05-30T14:40:13.097Z,2.33
2019-05-30T14:42:41.771Z,2.08
2019-05-30T14:45:12.515Z,3.55
2019-05-30T14:47:41.500Z,3.30
2019-05-30T14:50:11.232Z,2.75
2019-05-30T14:52:40.074Z,3.72
2019-05-30T14:55:09.402Z,5.85
2019-05-30T14:57:38.265Z,2.62
2019-05-30T15:00:13.785Z,2.55
2019-05-30T15:02:43.040Z,2.75
2019-05-30T15:05:13.749Z,2.25
2019-05-30T15:07:43.121Z,2.22
2019-05-30T15:10:12.793Z,2.52
2019-05-30T15:12:41.816Z,1.40
2019-05-30T15:15:16.624Z,2.05
2019-05-30T15:17:43.926Z,5.90
2019-05-30T15:20:14.763Z,8.98
2019-05-30T15:22:43.615Z,1.50
2019-05-30T15:25:12.409Z,9.00
2019-05-30T15:27:41.378Z,2.98
2019-05-30T15:30:12.629Z,1.72
2019-05-30T15:32:41.686Z,3.83
2019-05-30T15:35:11.104Z,1.72
2019-05-30T15:37:40.878Z,2.58
2019-05-30T15:40:10.992Z,1.52
2019-05-30T15:42:40.020Z,1.70
2019-05-30T15:45:09.939Z,4.00
2019-05-30T15:47:39.150Z,8.50
2019-05-30T15:50:08.740Z,1.72
2019-05-30T15:52:37.765Z,2.55
2019-05-30T15:55:09.267Z,2.85
2019-05-30T15:57:38.123Z,4.83
2019-05-30T16:00:13.862Z,1.72
2019-05-30T16:02:43.100Z,3.33
2019-05-30T16:05:12.626Z,2.15
2019-05-30T16:07:41.644Z,2.98
2019-05-30T16:10:10.836Z,1.32
2019-05-30T16:12:39.943Z,3.17
2019-05-30T16:15:11.675Z,1.77
2019-05-30T16:17:40.714Z,3.72
2019-05-30T16:20:09.849Z,3.02
2019-05-30T16:22:38.744Z,1.55
2019-05-30T16:25:08.263Z,26.80
2019-05-30T16:27:36.755Z,4.22
2019-05-30T16:30:10.566Z,3.22
2019-05-30T16:32:39.529Z,4.08
2019-05-30T16:35:08.443Z,2.92
2019-05-30T16:37:37.338Z,1.60
2019-05-30T16:40:09.309Z,1.22
2019-05-30T16:42:38.310Z,1.27
2019-05-30T16:45:10.830Z,1.20
2019-05-30T16:47:39.713Z,1.50
2019-05-30T16:50:09.929Z,2.20
2019-05-30T16:52:38.580Z,2.15
2019-05-30T16:55:10.618Z,1.65
2019-05-30T16:57:39.157Z,2.45
2019-05-30T17:00:10.396Z,1.77
2019-05-30T17:02:39.252Z,3.00
2019-05-30T17:05:09.792Z,1.95
2019-05-30T17:07:38.647Z,1.50
2019-05-30T17:10:21.580Z,1.30
2019-05-30T17:12:38.768Z,2.33
2019-05-30T17:15:09.323Z,1.65
2019-05-30T17:17:37.860Z,8.45
2019-05-30T17:20:11.806Z,5.10
2019-05-30T17:22:40.480Z,2.27
2019-05-30T17:25:10.801Z,1.92
2019-05-30T17:27:39.587Z,1.77
2019-05-30T17:30:09.615Z,1.50
2019-05-30T17:32:38.474Z,3.90
2019-05-30T17:35:08.296Z,4.28
2019-05-30T17:37:36.811Z,2.62
2019-05-30T17:40:07.022Z,2.95
2019-05-30T17:42:36.038Z,3.72
2019-05-30T17:45:07.144Z,4.67
2019-05-30T17:47:36.063Z,5.20
2019-05-30T17:50:07.220Z,2.80
2019-05-30T17:52:36.088Z,2.60
2019-05-30T17:55:09.646Z,2.62
2019-05-30T17:57:38.526Z,1.55
2019-05-30T18:00:13.130Z,2.83
2019-05-30T18:02:42.727Z,2.02
2019-05-30T18:05:12.305Z,1.40
2019-05-30T18:07:40.878Z,1.90
2019-05-30T18:10:10.729Z,1.47
2019-05-30T18:12:39.686Z,5.25
2019-05-30T18:15:13.943Z,3.87
2019-05-30T18:17:42.419Z,3.50
2019-05-30T18:20:12.649Z,1.52
2019-05-30T18:22:41.544Z,1.92
2019-05-30T18:25:11.328Z,1.80
2019-05-30T18:27:40.165Z,4.58
2019-05-30T18:30:10.282Z,1.62
2019-05-30T18:32:39.276Z,2.80
2019-05-30T18:35:09.057Z,3.55
2019-05-30T18:37:38.655Z,1.75
2019-05-30T18:40:08.944Z,2.12
2019-05-30T18:42:38.046Z,1.92
2019-05-30T18:45:09.210Z,2.08
2019-05-30T18:47:37.771Z,1.67
2019-05-30T18:50:08.144Z,2.15
2019-05-30T18:52:37.036Z,2.77
2019-05-30T18:55:07.478Z,2.47
2019-05-30T18:57:37.373Z,7.05
2019-05-30T19:00:10.025Z,5.20
2019-05-30T19:02:39.683Z,2.25
2019-05-30T19:05:08.976Z,4.03
2019-05-30T19:07:37.831Z,2.05
2019-05-30T19:10:07.409Z,2.05
2019-05-30T19:12:36.537Z,2.47
2019-05-30T19:15:08.089Z,2.80
2019-05-30T19:17:36.920Z,3.33
2019-05-30T19:20:07.411Z,3.22
2019-05-30T19:22:36.503Z,2.08
2019-05-30T19:25:07.399Z,2.45
2019-05-30T19:27:37.082Z,3.90
2019-05-30T19:30:08.674Z,3.92
2019-05-30T19:32:37.601Z,3.00
2019-05-30T19:35:07.906Z,4.70
2019-05-30T19:37:37.592Z,2.70
2019-05-30T19:40:07.197Z,6.78
2019-05-30T19:42:37.899Z,4.72
2019-05-30T19:45:09.175Z,3.92
2019-05-30T19:47:38.733Z,3.17
2019-05-30T19:50:08.449Z,5.20
2019-05-30T19:52:37.322Z,2.72
2019-05-30T19:55:09.086Z,2.50
2019-05-30T19:57:37.971Z,2.65
2019-05-30T20:00:11.338Z,4.00
2019-05-30T20:02:40.583Z,4.10
2019-05-30T20:05:09.925Z,3.07
2019-05-30T20:07:38.889Z,2.08
2019-05-30T20:10:08.193Z,2.00
2019-05-30T20:12:37.224Z,1.73
2019-05-30T20:15:09.035Z,1.65
2019-05-30T20:17:37.876Z,3.90
2019-05-30T20:20:08.558Z,5.40
2019-05-30T20:22:38.233Z,3.30
2019-05-30T20:25:09.718Z,2.57
2019-05-30T20:27:39.009Z,3.87
2019-05-30T20:30:09.165Z,2.33
2019-05-30T20:32:38.781Z,2.47
2019-05-30T20:35:08.078Z,2.50
2019-05-30T20:37:37.036Z,2.90
2019-05-30T20:40:07.895Z,1.80
2019-05-30T20:42:36.775Z,2.10
2019-05-30T20:45:10.125Z,5.20
2019-05-30T20:47:40.728Z,4.23
2019-05-30T20:50:10.286Z,1.80
2019-05-30T20:55:12.037Z,2.50
2019-05-30T20:57:34.218Z,2.53
2019-05-30T20:57:40.789Z,5.40
2019-05-30T21:00:10.930Z,3.33
2019-05-30T21:02:43.670Z,2.53
2019-05-30T21:05:14.848Z,3.07
2019-05-30T21:07:44.420Z,3.17
2019-05-30T21:10:17.932Z,3.87
2019-05-30T21:12:49.420Z,3.50
2019-05-30T21:15:21.065Z,3.33
2019-05-30T21:17:53.682Z,2.63
2019-05-30T21:20:28.638Z,2.40
2019-05-30T21:22:59.110Z,6.80
2019-05-30T21:25:24.873Z,2.55
2019-05-30T21:27:55.165Z,4.12
2019-05-30T21:30:25.844Z,3.62
2019-05-30T21:32:54.950Z,6.27
2019-05-30T21:35:25.739Z,2.77
2019-05-30T21:37:54.835Z,2.60
2019-05-30T21:40:26.121Z,3.10
2019-05-30T21:43:05.227Z,3.07
2019-05-30T21:45:24.477Z,3.70
2019-05-30T21:47:53.388Z,2.97
2019-05-30T21:50:22.293Z,2.62
2019-05-30T21:52:51.213Z,4.63
2019-05-30T21:55:20.244Z,5.37
2019-05-30T21:57:51.882Z,4.37
2019-05-30T22:00:40.213Z,4.60
2019-05-30T22:03:10.251Z,4.10
2019-05-30T22:05:40.767Z,3.90
2019-05-30T22:08:11.679Z,3.33
2019-05-30T22:10:41.252Z,3.67
2019-05-30T22:13:09.899Z,3.47
2019-05-30T22:15:39.013Z,4.83
2019-05-30T22:18:07.980Z,4.13
2019-05-30T22:20:36.828Z,4.00
2019-05-30T22:23:05.689Z,4.33
2019-05-30T22:25:34.636Z,3.20
2019-05-30T22:28:03.557Z,5.03
2019-05-30T22:30:32.586Z,4.40
2019-05-30T22:33:01.510Z,5.83
2019-05-30T22:35:31.607Z,4.63
2019-05-30T22:38:00.461Z,3.40
2019-05-30T22:40:29.427Z,3.97
2019-05-30T22:43:00.189Z,9.13
2019-05-30T22:45:29.162Z,5.00
2019-05-30T22:47:59.676Z,5.33
2019-05-30T22:50:28.350Z,11.57
2019-05-30T22:53:00.478Z,5.33
2019-05-30T22:55:31.039Z,3.63
2019-05-30T22:58:01.277Z,4.93
2019-05-30T23:00:31.166Z,6.73
2019-05-30T23:03:00.090Z,3.50
2019-05-30T23:05:30.748Z,4.43
2019-05-30T23:08:01.675Z,3.47
2019-05-30T23:10:30.320Z,6.73
2019-05-30T23:13:00.306Z,4.03
2019-05-30T23:15:29.332Z,5.07
2019-05-30T23:17:59.500Z,3.23
2019-05-30T23:20:32.317Z,3.07
2019-05-30T23:23:01.220Z,5.00
2019-05-30T23:25:30.040Z,5.70
2019-05-30T23:27:58.631Z,7.10
2019-05-30T23:30:27.619Z,4.40
2019-05-30T23:32:56.371Z,3.27
2019-05-30T23:35:25.216Z,3.77
2019-05-30T23:37:54.723Z,4.47
2019-05-30T23:40:23.762Z,3.33
2019-05-30T23:42:52.995Z,6.97
2019-05-30T23:45:21.991Z,3.33
2019-05-30T23:47:51.333Z,7.03
2019-05-30T23:50:20.416Z,2.93
2019-05-30T23:52:52.065Z,3.67
2019-05-30T23:55:21.011Z,5.37
2019-05-30T23:57:52.706Z,4.93
